createdAt,value
2019-03-05T07:32:44.623Z,99994.31
2019-03-05T07:35:49.809Z,99983.64
2019-03-05T07:38:49.048Z,99985.56
2019-03-05T07:41:37.961Z,99992.52
2019-03-05T07:44:18.838Z,99991.51
2019-03-05T07:47:17.885Z,99996.88
2019-03-05T07:53:36.130Z,99997.11
2019-03-05T08:04:31.722Z,100008.69
2019-03-05T08:16:33.056Z,100012.16
2019-03-05T08:19:03.042Z,100024.41
2019-03-05T08:21:51.240Z,100025.58
2019-03-05T08:27:35.996Z,100036.51
2019-03-05T08:30:27.697Z,100045.23
2019-03-05T08:33:19.467Z,100038.31
2019-03-05T08:35:47.834Z,100043.98
2019-03-05T08:38:36.607Z,100054.09
2019-03-05T08:40:55.108Z,100051.01
2019-03-05T08:43:23.839Z,100065.72
2019-03-05T08:49:13.108Z,100074.28
2019-03-05T08:52:12.881Z,100073.64
2019-03-05T08:55:32.238Z,100080.69
2019-03-05T10:47:22.910Z,100122.55
2019-03-05T10:50:15.226Z,100118.95
2019-03-05T11:02:31.378Z,100126.48
2019-03-05T11:08:52.657Z,100130.69
2019-03-05T11:11:27.919Z,100130.69
2019-03-05T11:14:29.784Z,100131.58
2019-03-05T11:26:09.941Z,100133.98
2019-03-05T11:31:07.887Z,100142.35
2019-03-05T11:33:40.299Z,100146.38
2019-03-05T11:41:55.007Z,100157.27
2019-03-05T11:44:58.813Z,100159.27
2019-03-05T11:53:23.256Z,100158.33
2019-03-05T11:55:58.834Z,100155.31
2019-03-05T11:58:40.364Z,100160.60
2019-03-05T12:01:24.718Z,100163.26
2019-03-05T12:03:58.598Z,100169.78
2019-03-05T12:06:29.097Z,100182.20
2019-03-05T12:09:10.807Z,100180.64
2019-03-05T12:12:02.391Z,100185.33
2019-03-05T12:14:28.233Z,100184.62
2019-03-05T12:17:08.133Z,100189.63
2019-03-05T12:19:48.420Z,100189.63
2019-03-05T12:22:18.193Z,100195.34
2019-03-05T12:27:50.356Z,100197.13
2019-03-05T12:33:01.698Z,100200.19
2019-03-05T12:48:01.305Z,100193.69
2019-03-05T12:51:08.457Z,100203.05
2019-03-05T12:54:01.696Z,100207.04
2019-03-05T12:56:31.941Z,100205.19
2019-03-05T12:59:00.400Z,100202.03
2019-03-05T13:01:34.939Z,100198.69
2019-03-05T13:04:13.213Z,100207.67
2019-03-05T13:06:43.292Z,100203.14
2019-03-05T13:09:19.574Z,100206.72
2019-03-05T13:12:12.923Z,100203.28
2019-03-05T13:14:42.828Z,100207.91
2019-03-05T13:17:16.454Z,100214.18
2019-03-05T13:19:47.996Z,100204.10
2019-03-05T13:22:20.509Z,100205.83
2019-03-05T13:24:50.205Z,100210.98
2019-03-05T13:27:28.481Z,100212.45
2019-03-05T13:29:56.957Z,100215.31
2019-03-05T13:32:27.170Z,100222.59
2019-03-05T13:35:02.604Z,100225.23
2019-03-05T13:37:36.364Z,100231.79
2019-03-05T13:40:12.618Z,100235.92
2019-03-05T13:42:47.619Z,100231.27
2019-03-05T13:45:19.249Z,100239.09
2019-03-05T13:47:50.418Z,100244.98
2019-03-05T13:54:01.428Z,100258.36
2019-03-05T13:56:58.261Z,100253.67
2019-03-05T13:59:48.086Z,100253.67
2019-03-05T14:16:53.111Z,100277.23
2019-03-05T14:22:35.585Z,100285.06
2019-03-05T14:28:22.604Z,100287.59
2019-03-05T14:31:24.260Z,100291.50
2019-03-05T14:34:03.258Z,100289.94
2019-03-05T14:37:08.466Z,100257.35
2019-03-05T14:39:41.346Z,100296.66
2019-03-05T14:42:12.257Z,100291.42
2019-03-05T14:44:50.354Z,100293.05
2019-03-05T14:47:18.868Z,100292.15
2019-03-05T14:49:51.551Z,100293.30
2019-03-05T14:52:26.056Z,100299.58
2019-03-05T14:54:56.434Z,100301.84
2019-03-05T14:58:08.586Z,100299.22
2019-03-05T15:00:37.625Z,100296.68
2019-03-05T15:03:39.875Z,100304.78
2019-03-05T15:06:21.009Z,100305.34
2019-03-05T15:08:54.157Z,100301.61
2019-03-05T15:11:22.893Z,100306.30
2019-03-05T15:13:51.365Z,100311.69
2019-03-05T15:16:20.125Z,100305.31
2019-03-05T15:18:48.995Z,100311.80
2019-03-05T15:21:17.765Z,100300.27
2019-03-05T15:23:46.390Z,100298.17
2019-03-05T15:26:15.253Z,100309.66
2019-03-05T15:28:56.454Z,100300.78
2019-03-05T15:31:30.336Z,100305.19
2019-03-05T15:34:10.923Z,100299.99
2019-03-05T15:36:40.587Z,100304.00
2019-03-05T15:39:11.806Z,100300.83
2019-03-05T15:41:45.969Z,100310.84
2019-03-05T15:44:25.432Z,100311.53
2019-03-05T15:46:52.979Z,100319.05
2019-03-05T15:49:31.904Z,100314.84
2019-03-05T15:52:01.713Z,100310.97
2019-03-05T15:59:57.883Z,100319.12
2019-03-05T16:02:59.330Z,100327.27
2019-03-05T16:05:48.997Z,100310.89
2019-03-05T16:08:50.298Z,100324.10
2019-03-05T16:14:29.592Z,100330.44
2019-03-05T16:20:06.295Z,100332.77
2019-03-05T16:22:55.165Z,100339.92
2019-03-05T16:25:41.280Z,100332.48
2019-03-05T16:32:02.275Z,100339.41
2019-03-05T16:34:28.424Z,100337.31
2019-03-05T16:40:56.027Z,100347.07
2019-03-05T16:50:19.315Z,100348.63
2019-03-05T16:52:58.170Z,100348.50
2019-03-05T16:55:58.251Z,100358.67
2019-03-05T16:58:52.167Z,100363.31
2019-03-05T17:02:12.904Z,100367.64
2019-03-05T17:05:09.070Z,100372.78
2019-03-05T17:08:15.326Z,100376.74
2019-03-05T17:11:02.604Z,100374.55
2019-03-05T17:14:01.969Z,100378.70
2019-03-05T17:16:29.549Z,100397.26
2019-03-05T17:19:10.220Z,100390.22
2019-03-05T17:21:38.764Z,100393.37
2019-03-05T17:30:21.306Z,100409.97
2019-03-05T17:36:06.660Z,100416.44
2019-03-05T17:44:26.100Z,100424.64
2019-03-05T17:47:51.905Z,100435.14
2019-03-05T17:50:06.574Z,100438.47
2019-03-05T17:56:05.455Z,100447.02
2019-03-05T18:04:38.366Z,100453.39
2019-03-05T18:07:29.794Z,100459.84
2019-03-05T18:19:42.411Z,100471.28
2019-03-05T18:22:11.201Z,100469.68
2019-03-05T18:24:40.123Z,100471.91
2019-03-05T19:12:07.537Z,100495.23
2019-03-05T19:14:46.277Z,100502.95
2019-03-05T19:17:35.485Z,100513.41
2019-03-05T19:29:23.224Z,100519.77
2019-03-05T19:35:11.179Z,100523.84
2019-03-05T19:41:19.226Z,100525.02
2019-03-05T19:47:07.248Z,100521.19
2019-03-05T19:53:19.561Z,100524.53
2019-03-05T19:59:01.500Z,100519.84
2019-03-05T20:04:57.002Z,100520.05
2019-03-05T20:10:35.655Z,100523.42
2019-03-05T20:13:34.136Z,100516.55
2019-03-05T20:19:01.102Z,100531.19
2019-03-05T20:24:52.288Z,100523.62
2019-03-05T20:34:31.035Z,100529.47
2019-03-05T20:40:15.623Z,100531.28
2019-03-05T20:52:11.556Z,100539.24
2019-03-05T20:54:58.936Z,100539.69
2019-03-05T20:57:51.834Z,100533.08
2019-03-05T21:00:45.816Z,100532.37
2019-03-05T21:06:35.774Z,100532.44
2019-03-05T21:09:07.045Z,100527.16
2019-03-05T21:11:36.569Z,100520.39
2019-03-05T21:14:09.509Z,100527.89
2019-03-05T21:16:41.384Z,100525.16
2019-03-05T21:19:10.972Z,100522.89
2019-03-05T21:21:39.947Z,100529.25
2019-03-05T21:24:15.850Z,100527.39
2019-03-05T21:26:43.590Z,100535.36
2019-03-05T21:29:12.968Z,100538.43
2019-03-05T21:31:41.911Z,100533.27
2019-03-05T21:34:22.592Z,100534.65
2019-03-05T21:36:53.311Z,100530.41
2019-03-05T21:39:24.217Z,100526.07
2019-03-05T21:41:53.996Z,100526.87
2019-03-05T21:44:45.963Z,100529.55
2019-03-05T21:47:22.346Z,100523.67
2019-03-05T21:53:16.677Z,100534.33
2019-03-05T21:55:50.441Z,100529.41
2019-03-05T21:58:27.312Z,100535.05
2019-03-05T22:00:56.125Z,100529.09
2019-03-05T22:03:24.522Z,100530.19
2019-03-05T22:05:56.851Z,100532.97
2019-03-05T22:08:34.753Z,100528.52
2019-03-05T22:11:05.723Z,100526.06
2019-03-05T22:13:34.193Z,100487.20
2019-03-05T22:16:03.749Z,100528.69
2019-03-05T22:18:35.244Z,100527.16
2019-03-05T22:21:07.207Z,100525.22
2019-03-05T22:23:35.819Z,100524.06
2019-03-05T22:26:14.614Z,100527.80
2019-03-05T22:28:43.311Z,100522.25
2019-03-05T22:31:11.841Z,100526.67
2019-03-05T22:33:44.321Z,100521.93
2019-03-05T22:36:16.144Z,100525.34
2019-03-05T22:38:47.312Z,100518.50
2019-03-05T22:41:15.746Z,100521.05
2019-03-05T22:43:44.471Z,100518.27
2019-03-05T22:46:12.751Z,100520.92
2019-03-05T22:48:41.210Z,100515.80
2019-03-05T22:51:11.142Z,100518.27
2019-03-05T22:53:39.644Z,100511.30
2019-03-05T22:56:18.591Z,100513.76
2019-03-05T22:58:49.523Z,100510.17
2019-03-05T23:01:27.810Z,100511.14
2019-03-05T23:03:59.264Z,100519.95
2019-03-05T23:06:37.121Z,100516.64
2019-03-05T23:09:08.321Z,100516.89
2019-03-05T23:11:39.054Z,100518.14
2019-03-05T23:14:07.849Z,100299.80
2019-03-05T23:16:37.379Z,100511.77
2019-03-05T23:19:05.939Z,100513.83
2019-03-05T23:21:34.748Z,100511.02
2019-03-05T23:24:03.139Z,100505.77
2019-03-05T23:26:31.850Z,100500.46
2019-03-05T23:29:00.524Z,100495.63
2019-03-05T23:31:28.900Z,100491.08
2019-03-05T23:34:00.381Z,100491.95
2019-03-05T23:36:29.112Z,100491.28
2019-03-05T23:38:57.624Z,100490.27
2019-03-05T23:41:35.160Z,100486.20
2019-03-05T23:44:06.544Z,100488.91
2019-03-05T23:46:35.018Z,100491.49
2019-03-05T23:49:04.926Z,100490.37
2019-03-05T23:51:37.099Z,100488.09
2019-03-05T23:54:05.594Z,100482.53
2019-03-05T23:56:34.042Z,100480.83
2019-03-05T23:59:02.774Z,100473.91
